Time;durP1;ratioP1;P1;durP2;ratioP2;P2;SDS_P1;SDS_P2;PMS_P1;PMS_P2;Temp;Humidity;BMP_temperature;BMP_pressure;BME280_temperature;BME280_humidity;BME280_pressure;Samples;Min_cycle;Max_cycle;Signal;HPM_P1;HPM_P2
2022/09/23 00:01:18;;;;;;;14.30;5.80;;;18.20;99.90;;;;;;5015876;28;20890;-79
2022/09/23 00:03:46;;;;;;;15.83;6.07;;;18.20;99.90;;;;;;5010447;28;20458;-88
2022/09/23 00:06:16;;;;;;;12.68;5.53;;;18.10;99.90;;;;;;5012417;28;20433;-83
2022/09/23 00:08:43;;;;;;;14.13;6.05;;;18.10;99.90;;;;;;5013228;28;20893;-87
2022/09/23 00:11:16;;;;;;;15.48;6.22;;;18.00;99.90;;;;;;5016615;28;20766;-88
2022/09/23 00:13:45;;;;;;;15.00;6.30;;;18.10;99.90;;;;;;5013410;28;20411;-89
2022/09/23 00:16:15;;;;;;;15.20;6.72;;;18.00;99.90;;;;;;5012644;28;20387;-83
2022/09/23 00:18:42;;;;;;;11.93;5.40;;;17.90;99.90;;;;;;5022900;28;20469;-87
2022/09/23 00:21:12;;;;;;;14.07;5.40;;;17.90;99.90;;;;;;5038003;28;20440;-83
2022/09/23 00:23:40;;;;;;;17.93;6.73;;;17.70;99.90;;;;;;5035705;28;20378;-83
2022/09/23 00:26:10;;;;;;;18.27;7.07;;;17.40;99.90;;;;;;5034531;28;20424;-82
2022/09/23 00:28:40;;;;;;;27.33;8.70;;;17.30;99.90;;;;;;5034981;28;20457;-84
2022/09/23 00:31:11;;;;;;;17.17;7.90;;;17.20;99.90;;;;;;5016341;28;20414;-81
2022/09/23 00:33:39;;;;;;;20.40;8.03;;;17.20;99.90;;;;;;5035141;28;20385;-84
2022/09/23 00:36:09;;;;;;;18.80;8.55;;;17.20;99.90;;;;;;5034676;28;20398;-89
2022/09/23 00:38:37;;;;;;;18.80;9.40;;;17.40;99.90;;;;;;5034151;28;20406;-85
2022/09/23 00:41:05;;;;;;;20.35;9.48;;;17.40;99.90;;;;;;5034060;28;20939;-83
2022/09/23 00:43:41;;;;;;;16.27;8.38;;;17.40;99.90;;;;;;5034568;28;20473;-84
2022/09/23 00:46:12;;;;;;;20.48;9.77;;;17.30;99.90;;;;;;5034186;28;20443;-86
2022/09/23 00:48:42;;;;;;;16.65;9.00;;;17.40;99.90;;;;;;5036085;28;20365;-84
2022/09/23 00:51:13;;;;;;;16.60;7.30;;;17.40;99.90;;;;;;5017960;28;20742;-81
2022/09/23 00:53:41;;;;;;;19.03;9.23;;;17.40;99.90;;;;;;5038164;28;20377;-82
2022/09/23 00:56:10;;;;;;;18.43;9.70;;;17.40;99.90;;;;;;5038241;28;20397;-84
2022/09/23 00:58:40;;;;;;;17.45;8.07;;;17.60;99.90;;;;;;5035841;28;20854;-83
2022/09/23 01:01:07;;;;;;;17.83;7.38;;;17.80;99.90;;;;;;5034961;28;20445;-90
2022/09/23 01:03:34;;;;;;;14.82;6.72;;;17.80;99.90;;;;;;5020483;28;20385;-88
2022/09/23 01:06:01;;;;;;;14.73;6.07;;;17.90;99.90;;;;;;5035362;28;20881;-84
2022/09/23 01:08:30;;;;;;;12.45;5.68;;;18.20;99.90;;;;;;5016432;28;20476;-84
2022/09/23 01:11:26;;;;;;;15.03;5.70;;;18.60;99.90;;;;;;5035450;28;20388;-89
2022/09/23 01:13:59;;;;;;;11.15;4.95;;;18.70;99.90;;;;;;5034459;28;20353;-86
2022/09/23 01:16:38;;;;;;;11.40;4.60;;;19.10;99.90;;;;;;5034368;28;20923;-83
2022/09/23 01:19:36;;;;;;;11.32;4.60;;;19.70;99.90;;;;;;5033474;28;20381;-85
2022/09/23 01:22:24;;;;;;;11.68;4.15;;;20.00;99.90;;;;;;4972309;28;20374;-87
2022/09/23 01:25:02;;;;;;;13.02;4.80;;;19.80;99.90;;;;;;4972459;28;20507;-82
2022/09/23 01:28:17;;;;;;;13.03;4.73;;;20.30;99.90;;;;;;4972543;28;20414;-82
2022/09/23 01:30:49;;;;;;;11.07;4.77;;;20.40;99.90;;;;;;4972787;28;20382;-85
2022/09/23 01:33:30;;;;;;;12.75;4.80;;;20.40;99.90;;;;;;4973599;28;20405;-82
2022/09/23 01:36:02;;;;;;;16.15;4.95;;;20.00;99.90;;;;;;4962340;28;20886;-84
2022/09/23 01:38:53;;;;;;;13.93;4.93;;;19.70;99.90;;;;;;4975355;28;20386;-85
2022/09/23 01:41:37;;;;;;;16.77;6.03;;;19.30;99.90;;;;;;4972087;28;20390;-84
2022/09/23 01:44:25;;;;;;;26.75;6.70;;;19.10;99.90;;;;;;4972249;28;20402;-83
2022/09/23 01:47:15;;;;;;;16.88;5.88;;;18.80;99.90;;;;;;4972493;28;20432;-88
2022/09/23 01:49:57;;;;;;;20.58;6.95;;;18.60;99.90;;;;;;4915680;29;20459;-87
2022/09/23 01:52:36;;;;;;;16.73;5.45;;;18.30;99.90;;;;;;4914908;29;20403;-81
2022/09/23 01:55:20;;;;;;;15.98;4.65;;;18.00;99.90;;;;;;4918029;29;20384;-82
2022/09/23 01:57:54;;;;;;;14.65;4.95;;;17.80;99.90;;;;;;4917318;29;20875;-86
2022/09/23 02:00:24;;;;;;;18.40;4.78;;;17.70;99.90;;;;;;4974632;28;20387;-87
2022/09/23 02:03:00;;;;;;;21.15;5.20;;;17.60;99.90;;;;;;4973819;28;20389;-87
2022/09/23 02:05:35;;;;;;;23.60;4.85;;;17.70;99.90;;;;;;4974560;28;20890;-84
2022/09/23 02:08:17;;;;;;;18.35;5.35;;;17.70;99.90;;;;;;4975374;28;20397;-91
2022/09/23 02:10:48;;;;;;;18.80;5.93;;;17.70;99.90;;;;;;4958493;28;20552;-86
2022/09/23 02:13:41;;;;;;;17.57;6.03;;;17.80;99.90;;;;;;4974283;28;20389;-85
2022/09/23 02:16:33;;;;;;;16.85;5.65;;;18.10;99.90;;;;;;4898470;29;20517;-89
2022/09/23 02:19:12;;;;;;;19.02;5.57;;;18.20;99.90;;;;;;4903090;29;20390;-85
2022/09/23 02:22:08;;;;;;;19.50;6.10;;;18.20;99.90;;;;;;4900579;29;20409;-89
2022/09/23 02:24:38;;;;;;;18.25;5.72;;;18.30;99.90;;;;;;4901426;29;20405;-85
2022/09/23 02:27:29;;;;;;;13.33;5.50;;;18.60;99.90;;;;;;4900193;29;20413;-83
2022/09/23 02:30:13;;;;;;;14.93;4.35;;;19.60;99.90;;;;;;4898576;29;20389;-86
2022/09/23 02:32:57;;;;;;;16.50;5.13;;;20.10;99.90;;;;;;4882604;29;20422;-80
2022/09/23 02:35:44;;;;;;;19.42;5.00;;;20.10;99.90;;;;;;4900338;29;20865;-86
2022/09/23 02:38:19;;;;;;;14.13;4.55;;;20.00;99.90;;;;;;4900198;29;20401;-78
2022/09/23 02:40:57;;;;;;;17.95;3.72;;;19.70;99.90;;;;;;4898950;29;20389;-83
2022/09/23 02:43:34;;;;;;;15.27;4.10;;;19.50;99.90;;;;;;4898642;29;20393;-84
2022/09/23 02:46:03;;;;;;;17.40;4.22;;;19.20;99.90;;;;;;4899091;29;20408;-81
2022/09/23 02:48:48;;;;;;;13.65;3.65;;;19.20;99.90;;;;;;4898439;29;20432;-85
2022/09/23 02:51:15;;;;;;;13.80;3.58;;;19.50;99.90;;;;;;4898932;29;20381;-83
2022/09/23 02:53:44;;;;;;;12.93;3.13;;;19.80;99.90;;;;;;4994734;28;20484;-87
2022/09/23 02:56:21;;;;;;;10.95;2.90;;;20.60;99.90;;;;;;5035463;28;20374;-86
2022/09/23 02:58:56;;;;;;;17.25;3.22;;;21.70;99.90;;;;;;5036737;28;20370;-84
2022/09/23 03:01:43;;;;;;;7.25;2.70;;;22.00;99.90;;;;;;5037465;28;20389;-88
2022/09/23 03:04:37;;;;;;;12.05;3.30;;;22.00;99.90;;;;;;5036554;28;20801;-87
2022/09/23 03:07:13;;;;;;;8.70;2.70;;;21.80;99.90;;;;;;5036342;28;20808;-83
2022/09/23 03:09:50;;;;;;;8.68;3.00;;;21.40;99.90;;;;;;5036182;28;20448;-82
2022/09/23 03:12:38;;;;;;;10.25;3.40;;;21.20;99.90;;;;;;5037331;28;20734;-84
2022/09/23 03:15:38;;;;;;;14.18;3.50;;;20.90;99.90;;;;;;5035498;28;20861;-79
2022/09/23 03:18:20;;;;;;;19.25;4.32;;;20.40;99.90;;;;;;5035055;28;20900;-81
2022/09/23 03:21:15;;;;;;;13.47;4.17;;;19.90;99.90;;;;;;5035424;28;20374;-80
2022/09/23 03:23:44;;;;;;;37.80;5.10;;;19.70;99.90;;;;;;4974282;28;20724;-81
2022/09/23 03:26:21;;;;;;;17.50;4.32;;;19.70;99.90;;;;;;4974883;28;20394;-81
2022/09/23 03:28:49;;;;;;;11.60;3.90;;;19.80;99.90;;;;;;4973990;28;20465;-81
2022/09/23 03:31:17;;;;;;;11.95;3.75;;;20.00;99.90;;;;;;4973744;28;20394;-79
2022/09/23 03:33:57;;;;;;;11.50;3.77;;;20.00;99.90;;;;;;4975634;28;20401;-80
2022/09/23 03:36:52;;;;;;;12.77;3.95;;;20.20;99.90;;;;;;4975731;28;20386;-91
2022/09/23 03:39:46;;;;;;;10.13;3.38;;;20.40;99.90;;;;;;4974571;28;20379;-80
2022/09/23 03:42:29;;;;;;;10.77;3.30;;;20.40;99.90;;;;;;4974359;28;20441;-88
2022/09/23 03:44:57;;;;;;;14.70;4.13;;;20.40;99.90;;;;;;4974568;28;20939;-90
2022/09/23 03:47:29;;;;;;;13.02;4.03;;;20.10;99.90;;;;;;4974823;28;20453;-89
2022/09/23 03:49:56;;;;;;;12.98;4.65;;;19.90;99.90;;;;;;4974774;28;20378;-87
2022/09/23 03:52:25;;;;;;;14.60;4.93;;;19.60;99.90;;;;;;4974433;28;20441;-89
2022/09/23 03:54:52;;;;;;;13.80;4.63;;;19.40;99.90;;;;;;4973633;28;20383;-88
2022/09/23 03:57:20;;;;;;;50.90;8.07;;;19.20;99.90;;;;;;4973564;28;20390;-88
2022/09/23 03:59:51;;;;;;;41.63;7.55;;;19.00;99.90;;;;;;4983922;28;20372;-85
2022/09/23 04:02:19;;;;;;;16.52;5.40;;;18.80;99.90;;;;;;5034709;28;20444;-85
2022/09/23 04:04:46;;;;;;;92.70;9.02;;;18.70;99.90;;;;;;5034809;28;20397;-84
2022/09/23 04:07:14;;;;;;;18.38;3.88;;;18.50;99.90;;;;;;5034435;28;20460;-87
2022/09/23 04:09:41;;;;;;;10.82;3.65;;;18.40;99.90;;;;;;5034219;28;20453;-86
2022/09/23 04:12:12;;;;;;;12.43;5.88;;;18.20;99.90;;;;;;5034682;28;20449;-88
2022/09/23 04:14:40;;;;;;;10.25;3.45;;;18.10;99.90;;;;;;5036400;28;20401;-87
2022/09/23 04:17:07;;;;;;;10.77;4.10;;;18.00;99.90;;;;;;5037250;28;20792;-86
2022/09/23 04:19:34;;;;;;;12.40;3.72;;;18.00;99.90;;;;;;5035754;28;20440;-85
2022/09/23 04:22:01;;;;;;;11.30;3.40;;;18.00;99.90;;;;;;5034078;28;20377;-84
2022/09/23 04:24:28;;;;;;;11.15;3.28;;;18.00;99.90;;;;;;5033962;28;20378;-84
2022/09/23 04:26:56;;;;;;;9.85;3.22;;;18.00;99.90;;;;;;5016047;28;20440;-79
2022/09/23 04:29:25;;;;;;;8.48;2.90;;;18.00;99.90;;;;;;5033800;28;20376;-81
2022/09/23 04:31:52;;;;;;;12.40;3.13;;;18.10;99.90;;;;;;5033474;28;20404;-86
2022/09/23 04:34:23;;;;;;;9.80;3.20;;;18.20;99.90;;;;;;5033841;28;20735;-85
2022/09/23 04:36:50;;;;;;;11.13;3.53;;;18.40;99.90;;;;;;5034360;28;20439;-91
2022/09/23 04:39:17;;;;;;;11.45;3.28;;;18.50;99.90;;;;;;5034821;28;20515;-84
2022/09/23 04:41:45;;;;;;;10.68;3.08;;;18.70;99.90;;;;;;5033204;28;20492;-89
2022/09/23 04:44:13;;;;;;;9.38;2.85;;;18.80;99.90;;;;;;5033956;28;20382;-92
2022/09/23 04:46:46;;;;;;;10.82;3.05;;;18.80;99.90;;;;;;5034697;28;20401;-92
2022/09/23 04:49:15;;;;;;;10.55;2.90;;;18.90;99.90;;;;;;5034678;28;20409;-88
2022/09/23 04:51:42;;;;;;;10.23;2.88;;;19.00;99.90;;;;;;5035480;28;20377;-81
2022/09/23 04:54:11;;;;;;;11.98;2.80;;;18.90;99.90;;;;;;5034013;28;20381;-89
2022/09/23 04:56:38;;;;;;;10.77;2.80;;;19.00;99.90;;;;;;5034032;28;20465;-82
2022/09/23 04:59:06;;;;;;;11.80;2.90;;;19.00;99.90;;;;;;5034212;28;20389;-90
2022/09/23 05:01:35;;;;;;;9.43;2.78;;;18.90;99.90;;;;;;5033871;28;20861;-87
2022/09/23 05:04:05;;;;;;;11.23;2.95;;;18.90;99.90;;;;;;5033983;28;20769;-87
2022/09/23 05:06:34;;;;;;;11.20;3.10;;;19.00;99.90;;;;;;5033830;28;20531;-88
2022/09/23 05:09:03;;;;;;;14.50;3.17;;;18.90;99.90;;;;;;5033756;28;20373;-90
2022/09/23 05:11:31;;;;;;;17.17;3.50;;;18.90;99.90;;;;;;5033912;28;20376;-90
2022/09/23 05:13:58;;;;;;;29.92;4.28;;;18.80;99.90;;;;;;5034169;28;20378;-88
2022/09/23 05:16:26;;;;;;;15.98;3.97;;;18.70;99.90;;;;;;5039916;28;20374;-88
2022/09/23 05:18:53;;;;;;;18.33;3.70;;;18.70;99.90;;;;;;5038385;28;20392;-90
2022/09/23 05:21:22;;;;;;;17.92;3.70;;;18.70;99.90;;;;;;5015995;28;20378;-89
2022/09/23 05:23:54;;;;;;;20.67;3.85;;;18.70;99.90;;;;;;5017506;28;20893;-89
2022/09/23 05:26:24;;;;;;;13.25;3.45;;;18.90;99.90;;;;;;5017675;28;20484;-88
2022/09/23 05:28:51;;;;;;;11.90;3.38;;;19.00;99.90;;;;;;5035867;28;20392;-89
2022/09/23 05:31:20;;;;;;;20.73;4.10;;;19.40;99.90;;;;;;5015533;28;20443;-89
2022/09/23 05:33:54;;;;;;;16.85;3.50;;;19.60;99.90;;;;;;5015886;28;20393;-89
2022/09/23 05:36:22;;;;;;;10.27;3.60;;;19.70;99.90;;;;;;5015977;28;20446;-89
2022/09/23 05:38:50;;;;;;;9.40;3.15;;;19.90;99.90;;;;;;5015962;28;20424;-90
2022/09/23 05:41:23;;;;;;;12.48;3.78;;;20.00;99.90;;;;;;5015735;28;20460;-89
2022/09/23 05:43:51;;;;;;;12.90;3.10;;;20.00;99.90;;;;;;5033687;28;20433;-87
2022/09/23 05:46:25;;;;;;;21.70;3.70;;;20.00;99.90;;;;;;5033201;28;20401;-89
2022/09/23 05:48:52;;;;;;;13.88;3.25;;;20.00;99.90;;;;;;5033345;28;20381;-89
2022/09/23 05:51:23;;;;;;;12.25;3.60;;;19.90;99.90;;;;;;5032998;28;20378;-87
2022/09/23 05:53:52;;;;;;;16.13;6.43;;;19.70;99.90;;;;;;5034943;28;20378;-86
2022/09/23 05:56:24;;;;;;;11.63;3.50;;;19.60;99.90;;;;;;5019279;28;20972;-89
2022/09/23 05:58:56;;;;;;;11.00;3.30;;;19.60;99.90;;;;;;5037558;28;20781;-91
2022/09/23 06:01:27;;;;;;;17.17;3.97;;;19.60;99.90;;;;;;5041015;28;20729;-91
2022/09/23 06:03:56;;;;;;;57.78;8.18;;;19.60;99.90;;;;;;5039838;28;20420;-88
2022/09/23 06:06:37;;;;;;;71.60;11.07;;;19.40;99.90;;;;;;5038790;28;20429;-89
2022/09/23 06:09:06;;;;;;;71.00;12.37;;;19.30;99.90;;;;;;5037284;28;20388;-92
2022/09/23 06:11:35;;;;;;;13.40;4.70;;;19.20;99.90;;;;;;5039934;28;20427;-89
2022/09/23 06:14:03;;;;;;;23.60;6.15;;;19.20;99.90;;;;;;5036942;28;20460;-89
2022/09/23 06:16:32;;;;;;;12.32;4.90;;;19.20;99.90;;;;;;5020672;28;20388;-89
2022/09/23 06:19:04;;;;;;;12.38;5.20;;;19.10;99.90;;;;;;5037906;28;20432;-87
2022/09/23 06:21:32;;;;;;;13.05;5.30;;;19.20;99.90;;;;;;5038038;28;20868;-87
2022/09/23 06:24:00;;;;;;;12.63;5.20;;;19.20;99.90;;;;;;5038340;28;20378;-87
2022/09/23 06:26:32;;;;;;;14.30;5.05;;;19.20;99.90;;;;;;5036964;28;20825;-91
2022/09/23 06:29:03;;;;;;;13.45;5.05;;;19.10;99.90;;;;;;5036126;28;20362;-90
2022/09/23 06:31:31;;;;;;;14.17;5.13;;;19.00;99.90;;;;;;5036798;28;20960;-90
2022/09/23 06:33:58;;;;;;;15.68;5.30;;;19.00;99.90;;;;;;5035681;28;20378;-90
2022/09/23 06:36:25;;;;;;;17.23;5.57;;;19.00;99.90;;;;;;5035564;28;20469;-86
2022/09/23 06:38:52;;;;;;;15.20;5.50;;;19.00;99.90;;;;;;5035648;28;20549;-86
2022/09/23 06:41:19;;;;;;;13.40;4.70;;;19.00;99.90;;;;;;5035825;28;20463;-90
2022/09/23 06:43:47;;;;;;;15.27;4.80;;;19.00;99.90;;;;;;5018197;28;20381;-90
2022/09/23 06:46:16;;;;;;;19.08;5.28;;;18.90;99.90;;;;;;5017725;28;20396;-91
2022/09/23 06:48:43;;;;;;;12.40;5.00;;;19.00;99.90;;;;;;5035641;28;20464;-91
2022/09/23 06:51:18;;;;;;;14.65;5.03;;;18.90;99.90;;;;;;5035832;28;20848;-94
2022/09/23 06:53:51;;;;;;;14.00;5.07;;;18.90;99.90;;;;;;5035788;28;20515;-89
2022/09/23 06:56:20;;;;;;;12.18;4.63;;;18.90;99.90;;;;;;5018155;28;20439;-92
2022/09/23 06:58:47;;;;;;;12.45;4.15;;;19.00;99.90;;;;;;5035659;28;20385;-88
2022/09/23 07:01:16;;;;;;;13.83;3.80;;;19.00;99.90;;;;;;5035628;28;20461;-94
2022/09/23 07:03:46;;;;;;;12.95;3.70;;;19.00;99.90;;;;;;5035294;28;20858;-90
2022/09/23 07:06:13;;;;;;;15.30;3.70;;;18.90;99.90;;;;;;5034567;28;20393;-88
2022/09/23 07:08:43;;;;;;;12.70;3.55;;;18.80;99.90;;;;;;5035109;28;20453;-91
2022/09/23 07:11:11;;;;;;;11.98;3.50;;;18.80;99.90;;;;;;5035214;28;20797;-92
2022/09/23 07:13:40;;;;;;;15.95;3.42;;;18.70;99.90;;;;;;5035106;28;20796;-89
2022/09/23 07:16:07;;;;;;;13.83;3.67;;;18.70;99.90;;;;;;5035606;28;20416;-91
2022/09/23 07:18:36;;;;;;;16.15;3.67;;;18.60;99.90;;;;;;5035554;28;20412;-91
2022/09/23 07:21:13;;;;;;;13.90;3.88;;;18.60;99.90;;;;;;5035224;28;20424;-92
2022/09/23 07:23:43;;;;;;;13.70;3.92;;;18.50;99.90;;;;;;5017343;28;20386;-86
2022/09/23 07:26:10;;;;;;;14.02;3.80;;;18.50;99.90;;;;;;5035734;28;20425;-89
2022/09/23 07:28:37;;;;;;;15.87;4.10;;;18.40;99.90;;;;;;5035216;28;20825;-88
2022/09/23 07:31:10;;;;;;;21.15;4.22;;;18.40;99.90;;;;;;5035177;28;20377;-89
2022/09/23 07:33:38;;;;;;;18.08;4.55;;;18.30;99.90;;;;;;5035393;28;20509;-92
2022/09/23 07:36:12;;;;;;;21.58;4.78;;;18.30;99.90;;;;;;5035853;28;20373;-90
2022/09/23 07:38:39;;;;;;;16.45;4.28;;;18.20;99.90;;;;;;5037729;28;20370;-84
2022/09/23 07:41:09;;;;;;;16.45;4.60;;;18.20;99.90;;;;;;5039069;28;20374;-88
2022/09/23 07:43:37;;;;;;;19.17;4.80;;;18.10;99.90;;;;;;5038067;28;20408;-85
2022/09/23 07:46:09;;;;;;;18.83;4.50;;;18.10;99.90;;;;;;5034925;28;20484;-83
2022/09/23 07:48:37;;;;;;;21.92;4.90;;;18.10;99.90;;;;;;5035302;28;20782;-85
2022/09/23 07:51:13;;;;;;;17.52;4.47;;;18.00;99.90;;;;;;5034790;28;20457;-87
2022/09/23 07:53:42;;;;;;;17.23;4.78;;;17.90;99.90;;;;;;5035115;28;20381;-89
2022/09/23 07:56:10;;;;;;;20.23;4.60;;;17.90;99.90;;;;;;5034958;28;20377;-87
2022/09/23 07:58:37;;;;;;;16.80;4.57;;;17.90;99.90;;;;;;5034933;28;20400;-86
2022/09/23 08:01:09;;;;;;;21.58;5.00;;;17.90;99.90;;;;;;5042856;28;20370;-84
2022/09/23 08:03:37;;;;;;;19.17;4.80;;;17.80;99.90;;;;;;5052048;28;20376;-84
2022/09/23 08:06:10;;;;;;;21.05;4.85;;;17.70;99.90;;;;;;5054946;28;20492;-84
2022/09/23 08:08:42;;;;;;;19.50;4.97;;;17.70;99.90;;;;;;5054907;28;20367;-87
2022/09/23 08:11:12;;;;;;;16.67;4.40;;;17.60;99.90;;;;;;5053865;28;20377;-86
2022/09/23 08:13:39;;;;;;;20.23;4.60;;;17.60;99.90;;;;;;5052512;28;20365;-84
2022/09/23 08:16:06;;;;;;;21.20;5.40;;;17.60;99.90;;;;;;5053324;28;20389;-86
2022/09/23 08:18:33;;;;;;;18.65;4.60;;;17.60;99.90;;;;;;5054790;28;20388;-84
2022/09/23 08:21:00;;;;;;;23.30;4.93;;;17.60;99.90;;;;;;5054433;28;20426;-84
2022/09/23 08:23:32;;;;;;;18.85;4.60;;;17.60;99.90;;;;;;5054181;28;20396;-84
2022/09/23 08:26:01;;;;;;;22.00;5.10;;;17.60;99.90;;;;;;5054370;28;20405;-87
2022/09/23 08:28:29;;;;;;;18.75;4.97;;;17.60;99.90;;;;;;5039049;28;20431;-87
2022/09/23 08:30:56;;;;;;;20.33;4.70;;;17.60;99.90;;;;;;5034729;28;20380;-87
2022/09/23 08:33:23;;;;;;;19.45;4.68;;;17.50;99.90;;;;;;5034509;28;20382;-86
2022/09/23 08:35:51;;;;;;;16.33;4.70;;;17.50;99.90;;;;;;5033895;28;20439;-83
2022/09/23 08:38:19;;;;;;;18.90;4.75;;;17.50;99.90;;;;;;5033524;28;20385;-87
2022/09/23 08:40:49;;;;;;;20.00;4.70;;;17.50;99.90;;;;;;5016936;28;20891;-84
2022/09/23 08:43:29;;;;;;;19.25;4.78;;;17.50;99.90;;;;;;5034516;28;20488;-84
2022/09/23 08:45:59;;;;;;;17.70;4.93;;;17.50;99.90;;;;;;5033653;28;20390;-85
2022/09/23 08:48:56;;;;;;;18.98;4.82;;;17.50;99.90;;;;;;5033777;28;20382;-88
2022/09/23 08:51:45;;;;;;;15.82;4.47;;;17.40;99.90;;;;;;5030490;28;20373;-86
2022/09/23 08:54:13;;;;;;;16.20;4.37;;;17.40;99.90;;;;;;5034141;28;20814;-84
2022/09/23 08:56:43;;;;;;;15.27;4.33;;;17.40;99.90;;;;;;5033931;28;20734;-87
2022/09/23 08:59:19;;;;;;;21.20;4.80;;;17.40;99.90;;;;;;5033149;28;20448;-87
2022/09/23 09:01:46;;;;;;;20.10;5.00;;;17.30;99.90;;;;;;5032859;28;20381;-84
2022/09/23 09:04:38;;;;;;;19.38;4.85;;;17.40;99.90;;;;;;5033038;28;20373;-86
2022/09/23 09:07:12;;;;;;;21.88;5.00;;;17.30;99.90;;;;;;5032853;28;20445;-84
2022/09/23 09:10:02;;;;;;;19.20;5.00;;;17.30;99.90;;;;;;5032459;28;20373;-88
2022/09/23 09:12:39;;;;;;;16.05;4.70;;;17.30;99.90;;;;;;5032654;28;20397;-85
2022/09/23 09:18:30;;;;;;;20.20;5.05;;;17.20;99.90;;;;;;5032837;28;20435;-86
2022/09/23 09:21:08;;;;;;;20.75;5.13;;;17.20;99.90;;;;;;5032792;28;20374;-86
2022/09/23 09:23:55;;;;;;;19.70;4.88;;;17.20;99.90;;;;;;5033025;28;20362;-83
2022/09/23 09:26:34;;;;;;;16.52;5.00;;;17.20;99.90;;;;;;5032927;28;20468;-87
2022/09/23 09:29:27;;;;;;;16.43;5.10;;;17.20;99.90;;;;;;5031770;28;20386;-87
2022/09/23 09:31:56;;;;;;;20.80;5.68;;;17.20;99.90;;;;;;5015066;28;20407;-87
2022/09/23 09:34:42;;;;;;;20.80;5.53;;;17.20;99.90;;;;;;5016994;28;20379;-87
2022/09/23 09:37:22;;;;;;;18.97;5.17;;;17.20;99.90;;;;;;5016890;28;20716;-88
2022/09/23 09:39:49;;;;;;;19.27;5.30;;;17.20;99.90;;;;;;5016161;28;20382;-88
2022/09/23 09:42:26;;;;;;;20.83;5.65;;;17.20;99.90;;;;;;5016901;28;20859;-87
2022/09/23 09:44:59;;;;;;;24.73;5.30;;;17.20;99.90;;;;;;5016562;28;20375;-82
2022/09/23 09:47:59;;;;;;;20.10;5.50;;;17.20;99.90;;;;;;5014364;28;20411;-82
2022/09/23 09:50:47;;;;;;;20.90;5.20;;;17.20;99.90;;;;;;5014967;28;20379;-84
2022/09/23 09:53:27;;;;;;;22.55;5.78;;;17.10;99.90;;;;;;5015958;28;20375;-83
2022/09/23 09:56:09;;;;;;;22.63;5.50;;;17.10;99.90;;;;;;5016026;28;20387;-83
2022/09/23 09:58:46;;;;;;;18.58;5.35;;;17.10;99.90;;;;;;5016431;28;20422;-84
2022/09/23 10:01:22;;;;;;;18.00;5.30;;;17.10;99.90;;;;;;5016603;28;20371;-87
2022/09/23 10:03:52;;;;;;;21.60;5.60;;;17.10;99.90;;;;;;5016228;28;20418;-86
2022/09/23 10:06:23;;;;;;;25.58;5.75;;;17.10;99.90;;;;;;5016790;28;20755;-87
2022/09/23 10:09:09;;;;;;;21.92;5.50;;;17.10;99.90;;;;;;5018246;28;20391;-88
2022/09/23 10:11:37;;;;;;;21.02;5.90;;;17.00;99.90;;;;;;5016147;28;20414;-88
2022/09/23 10:14:16;;;;;;;21.58;6.00;;;17.00;99.90;;;;;;5015249;28;20423;-83
2022/09/23 10:16:44;;;;;;;18.42;6.28;;;17.00;99.90;;;;;;5016801;28;20379;-83
2022/09/23 10:19:25;;;;;;;23.13;6.40;;;17.00;99.90;;;;;;5016731;28;20392;-84
2022/09/23 10:21:55;;;;;;;24.25;6.70;;;16.90;99.90;;;;;;5015700;28;20372;-88
2022/09/23 10:24:29;;;;;;;25.70;7.03;;;16.90;99.90;;;;;;5015124;28;20482;-86
2022/09/23 10:27:06;;;;;;;23.95;7.53;;;16.90;99.90;;;;;;5014233;28;20993;-84
2022/09/23 10:29:50;;;;;;;22.30;7.57;;;16.90;99.90;;;;;;5015917;28;20714;-88
2022/09/23 10:32:31;;;;;;;24.92;7.75;;;16.90;99.90;;;;;;5029432;28;20385;-84
2022/09/23 10:35:13;;;;;;;25.83;7.80;;;16.90;99.90;;;;;;5034477;28;20366;-87
2022/09/23 10:37:47;;;;;;;28.60;8.60;;;16.90;99.90;;;;;;5036266;28;20472;-83
2022/09/23 10:46:40;;;;;;;29.98;10.15;;;16.90;99.90;;;;;;5037777;28;20483;-87
2022/09/23 10:49:43;;;;;;;25.42;10.68;;;16.80;99.90;;;;;;5040456;28;20464;-87
2022/09/23 10:52:10;;;;;;;29.35;11.98;;;16.80;99.90;;;;;;5020946;28;20813;-87
2022/09/23 10:55:14;;;;;;;26.80;11.67;;;16.80;99.90;;;;;;5039602;28;20745;-87
2022/09/23 10:57:51;;;;;;;27.20;12.57;;;16.80;99.90;;;;;;5040902;28;20395;-82
2022/09/23 11:00:51;;;;;;;32.95;13.00;;;16.80;99.90;;;;;;5043201;28;20409;-83
2022/09/23 11:03:57;;;;;;;28.38;12.95;;;16.80;99.90;;;;;;5041994;28;20383;-87
2022/09/23 11:06:37;;;;;;;30.58;14.30;;;16.80;99.90;;;;;;5022352;28;20897;-83
2022/09/23 11:09:39;;;;;;;29.67;14.23;;;16.80;99.90;;;;;;5040086;28;20760;-83
2022/09/23 11:12:20;;;;;;;30.95;15.27;;;16.80;99.90;;;;;;5040504;28;20854;-87
2022/09/23 11:18:16;;;;;;;29.33;15.40;;;16.80;99.90;;;;;;5040151;28;20785;-86
2022/09/23 11:20:49;;;;;;;34.28;16.08;;;16.80;99.90;;;;;;5040278;28;20412;-87
2022/09/23 11:23:45;;;;;;;34.83;17.13;;;16.90;99.90;;;;;;5039667;28;20381;-83
2022/09/23 11:26:36;;;;;;;37.00;19.75;;;16.80;99.90;;;;;;5038951;28;20381;-87
2022/09/23 11:29:06;;;;;;;32.67;17.92;;;16.90;99.90;;;;;;5037665;28;20346;-85
2022/09/23 11:31:53;;;;;;;30.05;17.42;;;16.90;99.90;;;;;;5038315;28;20397;-88
2022/09/23 11:34:43;;;;;;;36.58;18.80;;;16.90;99.90;;;;;;5037440;28;20376;-86
2022/09/23 11:37:36;;;;;;;35.78;19.33;;;16.90;99.90;;;;;;5037073;28;20381;-85
2022/09/23 11:40:30;;;;;;;36.25;19.38;;;16.90;99.90;;;;;;5037782;28;20722;-87
2022/09/23 11:43:22;;;;;;;35.08;17.60;;;16.90;99.90;;;;;;5037448;28;20419;-84
2022/09/23 11:45:52;;;;;;;32.65;16.98;;;16.90;99.90;;;;;;5037640;28;20380;-88
2022/09/23 11:48:53;;;;;;;31.60;15.85;;;16.90;99.90;;;;;;5038305;28;20753;-86
2022/09/23 11:51:38;;;;;;;32.42;15.10;;;17.00;99.90;;;;;;5037875;28;20460;-85
2022/09/23 11:54:14;;;;;;;31.55;15.13;;;17.00;99.90;;;;;;5038309;28;20381;-83
2022/09/23 11:57:00;;;;;;;30.40;14.30;;;17.00;99.90;;;;;;5037763;28;20369;-86
2022/09/23 12:00:02;;;;;;;29.53;14.80;;;17.00;99.90;;;;;;5038437;28;20366;-85
2022/09/23 12:02:59;;;;;;;28.02;14.95;;;17.00;99.90;;;;;;5036082;28;20381;-85
2022/09/23 12:05:46;;;;;;;26.77;14.77;;;16.90;99.90;;;;;;5035268;28;20377;-83
2022/09/23 12:08:28;;;;;;;30.88;15.63;;;17.00;99.90;;;;;;5033948;28;20874;-87
2022/09/23 12:10:58;;;;;;;29.70;14.93;;;16.90;99.90;;;;;;5034206;28;20429;-87
2022/09/23 12:13:49;;;;;;;27.38;15.23;;;16.90;99.90;;;;;;5034085;28;20388;-80
2022/09/23 12:16:29;;;;;;;28.85;14.95;;;17.00;99.90;;;;;;5043066;28;20396;-81
2022/09/23 12:19:33;;;;;;;28.25;15.55;;;17.00;99.90;;;;;;5042494;28;20370;-87
2022/09/23 12:22:21;;;;;;;30.70;15.70;;;17.00;99.90;;;;;;5035511;28;20414;-83
2022/09/23 12:24:57;;;;;;;31.57;15.63;;;17.00;99.90;;;;;;5034007;28;20931;-85
2022/09/23 12:27:47;;;;;;;29.20;15.90;;;17.00;99.90;;;;;;5033713;28;20428;-91
2022/09/23 12:30:20;;;;;;;29.35;14.95;;;17.00;99.90;;;;;;5033891;28;20372;-86
2022/09/23 12:32:48;;;;;;;34.15;15.93;;;17.10;99.90;;;;;;5033684;28;20390;-87
2022/09/23 12:35:45;;;;;;;30.88;16.13;;;17.10;99.90;;;;;;5034057;28;20464;-81
2022/09/23 12:38:19;;;;;;;27.13;15.95;;;17.10;99.90;;;;;;5033387;28;20452;-89
2022/09/23 12:40:46;;;;;;;33.25;15.70;;;17.10;99.90;;;;;;5033948;28;20723;-88
2022/09/23 12:43:31;;;;;;;31.98;16.80;;;17.10;99.90;;;;;;5033374;28;20472;-91
2022/09/23 12:46:26;;;;;;;26.75;14.68;;;17.10;99.90;;;;;;5033086;28;20369;-83
2022/09/23 12:49:00;;;;;;;30.70;16.33;;;17.00;99.90;;;;;;5033493;28;21007;-90
2022/09/23 12:51:33;;;;;;;32.85;15.80;;;17.00;99.90;;;;;;5033229;28;20397;-91
2022/09/23 12:54:23;;;;;;;31.58;15.88;;;17.00;99.90;;;;;;5033072;28;20385;-90
2022/09/23 12:56:57;;;;;;;33.22;16.00;;;17.00;99.90;;;;;;5033498;28;20366;-84
2022/09/23 12:59:30;;;;;;;34.50;17.67;;;16.90;99.90;;;;;;5032759;28;20386;-89
2022/09/23 13:02:17;;;;;;;34.63;17.27;;;16.90;99.90;;;;;;5032950;28;20431;-89
2022/09/23 13:07:49;;;;;;;35.42;18.10;;;16.70;99.90;;;;;;5033705;28;20819;-86
2022/09/23 13:10:39;;;;;;;37.33;18.27;;;16.70;99.90;;;;;;5033339;28;20374;-89
2022/09/23 13:13:09;;;;;;;29.15;16.38;;;16.60;99.90;;;;;;5032842;28;20445;-90
2022/09/23 13:15:37;;;;;;;33.85;16.45;;;16.70;99.90;;;;;;5033247;28;20725;-85
2022/09/23 13:18:19;;;;;;;29.95;16.02;;;16.60;99.90;;;;;;5032847;28;20508;-89
2022/09/23 13:20:51;;;;;;;33.08;15.85;;;16.60;99.90;;;;;;5033370;28;20373;-86
2022/09/23 13:23:25;;;;;;;26.58;14.88;;;16.60;99.90;;;;;;5033032;28;20435;-94
2022/09/23 13:25:59;;;;;;;30.83;15.75;;;16.60;99.90;;;;;;5032895;28;20382;-84
2022/09/23 13:28:36;;;;;;;34.38;16.65;;;16.60;99.90;;;;;;5032930;28;20995;-88
2022/09/23 13:31:13;;;;;;;33.33;16.88;;;16.60;99.90;;;;;;5032519;28;20396;-88
2022/09/23 13:33:45;;;;;;;34.28;15.80;;;16.60;99.90;;;;;;5032581;28;20389;-88